sensor_id;sensor_type;location;lat;lon;timestamp;temperature;humidity
16273;DHT22;8244;50.044;9.006;2023-08-07T00:00:34;13.30;99.90
16273;DHT22;8244;50.044;9.006;2023-08-07T00:05:37;13.30;99.90
16273;DHT22;8244;50.044;9.006;2023-08-07T00:10:38;13.30;99.90
16273;DHT22;8244;50.044;9.006;2023-08-07T00:15:40;13.20;99.90
16273;DHT22;8244;50.044;9.006;2023-08-07T00:20:43;13.20;99.90
16273;DHT22;8244;50.044;9.006;2023-08-07T00:25:45;13.20;99.90
16273;DHT22;8244;50.044;9.006;2023-08-07T00:30:47;13.20;99.90
16273;DHT22;8244;50.044;9.006;2023-08-07T00:35:51;13.20;99.90
16273;DHT22;8244;50.044;9.006;2023-08-07T00:40:52;13.20;99.90
16273;DHT22;8244;50.044;9.006;2023-08-07T00:45:54;13.20;99.90
16273;DHT22;8244;50.044;9.006;2023-08-07T00:50:57;13.10;99.90
16273;DHT22;8244;50.044;9.006;2023-08-07T00:55:59;13.10;99.90
16273;DHT22;8244;50.044;9.006;2023-08-07T01:01:03;13.10;99.90
16273;DHT22;8244;50.044;9.006;2023-08-07T01:06:06;13.20;99.90
16273;DHT22;8244;50.044;9.006;2023-08-07T01:11:18;13.20;99.90
16273;DHT22;8244;50.044;9.006;2023-08-07T01:16:28;13.10;99.90
16273;DHT22;8244;50.044;9.006;2023-08-07T01:21:32;13.10;99.90
16273;DHT22;8244;50.044;9.006;2023-08-07T01:26:36;13.00;99.90
16273;DHT22;8244;50.044;9.006;2023-08-07T01:31:40;13.00;99.90
16273;DHT22;8244;50.044;9.006;2023-08-07T01:36:44;13.00;99.90
16273;DHT22;8244;50.044;9.006;2023-08-07T01:41:48;13.00;99.90
16273;DHT22;8244;50.044;9.006;2023-08-07T01:46:50;13.00;99.90
16273;DHT22;8244;50.044;9.006;2023-08-07T01:51:52;13.00;99.90
16273;DHT22;8244;50.044;9.006;2023-08-07T01:56:55;13.00;99.90
16273;DHT22;8244;50.044;9.006;2023-08-07T02:01:56;13.00;99.90
16273;DHT22;8244;50.044;9.006;2023-08-07T02:06:59;13.00;99.90
16273;DHT22;8244;50.044;9.006;2023-08-07T02:12:03;13.00;99.90
16273;DHT22;8244;50.044;9.006;2023-08-07T02:17:05;12.90;99.90
16273;DHT22;8244;50.044;9.006;2023-08-07T02:22:06;12.90;99.90
16273;DHT22;8244;50.044;9.006;2023-08-07T02:27:09;12.90;99.90
16273;DHT22;8244;50.044;9.006;2023-08-07T02:32:11;12.90;99.90
16273;DHT22;8244;50.044;9.006;2023-08-07T02:37:13;12.90;99.90
16273;DHT22;8244;50.044;9.006;2023-08-07T02:42:16;12.90;99.90
16273;DHT22;8244;50.044;9.006;2023-08-07T02:47:18;12.90;99.90
16273;DHT22;8244;50.044;9.006;2023-08-07T02:52:19;12.90;99.90
16273;DHT22;8244;50.044;9.006;2023-08-07T02:57:22;12.90;99.90
16273;DHT22;8244;50.044;9.006;2023-08-07T03:02:24;12.90;99.90
16273;DHT22;8244;50.044;9.006;2023-08-07T03:07:25;12.90;99.90
16273;DHT22;8244;50.044;9.006;2023-08-07T03:12:28;12.90;99.90
16273;DHT22;8244;50.044;9.006;2023-08-07T03:17:30;12.90;99.90
16273;DHT22;8244;50.044;9.006;2023-08-07T03:22:32;12.90;99.90
16273;DHT22;8244;50.044;9.006;2023-08-07T03:27:35;12.90;99.90
16273;DHT22;8244;50.044;9.006;2023-08-07T03:32:36;12.90;99.90
16273;DHT22;8244;50.044;9.006;2023-08-07T03:37:38;12.90;99.90
16273;DHT22;8244;50.044;9.006;2023-08-07T03:42:41;12.90;99.90
16273;DHT22;8244;50.044;9.006;2023-08-07T03:47:42;12.80;99.90
16273;DHT22;8244;50.044;9.006;2023-08-07T03:52:44;12.80;99.90
16273;DHT22;8244;50.044;9.006;2023-08-07T03:57:47;12.80;99.90
16273;DHT22;8244;50.044;9.006;2023-08-07T04:02:49;12.80;99.90
16273;DHT22;8244;50.044;9.006;2023-08-07T04:07:50;12.80;99.90
16273;DHT22;8244;50.044;9.006;2023-08-07T04:12:53;12.70;99.90
16273;DHT22;8244;50.044;9.006;2023-08-07T04:17:55;12.70;99.90
16273;DHT22;8244;50.044;9.006;2023-08-07T04:22:56;12.70;99.90
16273;DHT22;8244;50.044;9.006;2023-08-07T04:27:59;12.70;99.90
16273;DHT22;8244;50.044;9.006;2023-08-07T04:33:01;12.80;99.90
16273;DHT22;8244;50.044;9.006;2023-08-07T04:38:03;12.80;99.90
16273;DHT22;8244;50.044;9.006;2023-08-07T04:43:06;12.80;99.90
16273;DHT22;8244;50.044;9.006;2023-08-07T04:48:08;12.80;99.90
16273;DHT22;8244;50.044;9.006;2023-08-07T04:53:09;12.80;99.90
16273;DHT22;8244;50.044;9.006;2023-08-07T04:58:12;12.80;99.90
16273;DHT22;8244;50.044;9.006;2023-08-07T05:03:14;12.90;99.90
16273;DHT22;8244;50.044;9.006;2023-08-07T05:08:18;12.90;99.90
16273;DHT22;8244;50.044;9.006;2023-08-07T05:13:21;12.90;99.90
16273;DHT22;8244;50.044;9.006;2023-08-07T05:18:23;12.90;99.90
16273;DHT22;8244;50.044;9.006;2023-08-07T05:23:25;13.00;99.90
16273;DHT22;8244;50.044;9.006;2023-08-07T05:28:28;13.00;99.90
16273;DHT22;8244;50.044;9.006;2023-08-07T05:33:30;13.10;99.90
16273;DHT22;8244;50.044;9.006;2023-08-07T05:38:31;13.10;99.90
16273;DHT22;8244;50.044;9.006;2023-08-07T05:43:34;13.10;99.90
16273;DHT22;8244;50.044;9.006;2023-08-07T05:48:36;13.10;99.90
16273;DHT22;8244;50.044;9.006;2023-08-07T05:53:37;13.10;99.90
16273;DHT22;8244;50.044;9.006;2023-08-07T05:58:40;13.10;99.90
16273;DHT22;8244;50.044;9.006;2023-08-07T06:03:42;13.20;99.90
16273;DHT22;8244;50.044;9.006;2023-08-07T06:08:44;13.20;99.90
16273;DHT22;8244;50.044;9.006;2023-08-07T06:13:47;13.20;99.90
16273;DHT22;8244;50.044;9.006;2023-08-07T06:18:48;13.20;99.90
16273;DHT22;8244;50.044;9.006;2023-08-07T06:23:50;13.20;99.90
16273;DHT22;8244;50.044;9.006;2023-08-07T06:28:53;13.30;99.90
16273;DHT22;8244;50.044;9.006;2023-08-07T06:33:55;13.30;99.90
16273;DHT22;8244;50.044;9.006;2023-08-07T06:38:57;13.30;99.90
16273;DHT22;8244;50.044;9.006;2023-08-07T06:44:00;13.30;99.90
16273;DHT22;8244;50.044;9.006;2023-08-07T06:49:01;13.30;99.90
16273;DHT22;8244;50.044;9.006;2023-08-07T06:54:03;13.40;99.90
16273;DHT22;8244;50.044;9.006;2023-08-07T06:59:06;13.40;99.90
16273;DHT22;8244;50.044;9.006;2023-08-07T07:04:08;13.50;99.90
16273;DHT22;8244;50.044;9.006;2023-08-07T07:09:10;13.40;99.90
16273;DHT22;8244;50.044;9.006;2023-08-07T07:14:17;13.40;99.90
16273;DHT22;8244;50.044;9.006;2023-08-07T07:19:19;13.50;99.90
16273;DHT22;8244;50.044;9.006;2023-08-07T07:24:21;13.40;99.90
16273;DHT22;8244;50.044;9.006;2023-08-07T07:29:24;13.50;99.90
16273;DHT22;8244;50.044;9.006;2023-08-07T07:34:25;13.60;99.90
16273;DHT22;8244;50.044;9.006;2023-08-07T07:39:27;13.60;99.90
16273;DHT22;8244;50.044;9.006;2023-08-07T07:44:30;13.70;99.90
16273;DHT22;8244;50.044;9.006;2023-08-07T07:49:33;13.70;99.90
16273;DHT22;8244;50.044;9.006;2023-08-07T07:54:35;13.80;99.90
16273;DHT22;8244;50.044;9.006;2023-08-07T07:59:38;13.90;99.90
16273;DHT22;8244;50.044;9.006;2023-08-07T08:04:39;14.00;99.90
16273;DHT22;8244;50.044;9.006;2023-08-07T08:09:43;14.10;99.90
16273;DHT22;8244;50.044;9.006;2023-08-07T08:14:46;14.20;99.90
16273;DHT22;8244;50.044;9.006;2023-08-07T08:19:47;14.20;99.90
16273;DHT22;8244;50.044;9.006;2023-08-07T08:24:49;14.20;99.90
16273;DHT22;8244;50.044;9.006;2023-08-07T08:29:52;14.30;99.90
16273;DHT22;8244;50.044;9.006;2023-08-07T08:34:54;14.30;99.90
16273;DHT22;8244;50.044;9.006;2023-08-07T08:39:55;14.40;99.90
16273;DHT22;8244;50.044;9.006;2023-08-07T08:44:59;14.50;99.90
16273;DHT22;8244;50.044;9.006;2023-08-07T08:50:02;14.60;99.90
16273;DHT22;8244;50.044;9.006;2023-08-07T08:55:07;14.60;99.90
16273;DHT22;8244;50.044;9.006;2023-08-07T09:00:12;14.60;99.90
16273;DHT22;8244;50.044;9.006;2023-08-07T09:05:20;14.70;99.90
16273;DHT22;8244;50.044;9.006;2023-08-07T09:10:22;14.70;99.90
16273;DHT22;8244;50.044;9.006;2023-08-07T09:15:27;14.70;99.90
16273;DHT22;8244;50.044;9.006;2023-08-07T09:20:31;14.80;99.90
16273;DHT22;8244;50.044;9.006;2023-08-07T09:25:34;14.70;99.90
16273;DHT22;8244;50.044;9.006;2023-08-07T09:30:37;14.60;99.90
16273;DHT22;8244;50.044;9.006;2023-08-07T09:35:39;14.60;99.90
16273;DHT22;8244;50.044;9.006;2023-08-07T09:40:42;14.50;99.90
16273;DHT22;8244;50.044;9.006;2023-08-07T09:45:45;14.40;99.90
16273;DHT22;8244;50.044;9.006;2023-08-07T09:50:46;14.40;99.90
16273;DHT22;8244;50.044;9.006;2023-08-07T09:55:51;14.30;99.90
16273;DHT22;8244;50.044;9.006;2023-08-07T10:00:55;14.30;99.90
16273;DHT22;8244;50.044;9.006;2023-08-07T10:05:59;14.30;99.90
16273;DHT22;8244;50.044;9.006;2023-08-07T10:11:02;14.40;99.90
16273;DHT22;8244;50.044;9.006;2023-08-07T10:16:05;14.40;99.90
16273;DHT22;8244;50.044;9.006;2023-08-07T10:21:07;14.40;99.90
16273;DHT22;8244;50.044;9.006;2023-08-07T10:26:09;14.40;99.90
16273;DHT22;8244;50.044;9.006;2023-08-07T10:31:14;14.50;99.90
16273;DHT22;8244;50.044;9.006;2023-08-07T10:36:16;14.60;99.90
16273;DHT22;8244;50.044;9.006;2023-08-07T10:41:18;14.70;99.90
16273;DHT22;8244;50.044;9.006;2023-08-07T10:46:22;14.70;99.90
16273;DHT22;8244;50.044;9.006;2023-08-07T10:51:29;14.80;99.90
16273;DHT22;8244;50.044;9.006;2023-08-07T10:56:33;14.70;99.90
16273;DHT22;8244;50.044;9.006;2023-08-07T11:01:41;14.80;99.90
16273;DHT22;8244;50.044;9.006;2023-08-07T11:06:47;14.80;99.90
16273;DHT22;8244;50.044;9.006;2023-08-07T11:11:49;14.80;99.90
16273;DHT22;8244;50.044;9.006;2023-08-07T11:16:52;14.80;99.90
16273;DHT22;8244;50.044;9.006;2023-08-07T11:21:54;14.80;99.90
16273;DHT22;8244;50.044;9.006;2023-08-07T11:26:57;14.80;99.90
16273;DHT22;8244;50.044;9.006;2023-08-07T11:32:00;14.90;99.90
16273;DHT22;8244;50.044;9.006;2023-08-07T11:37:03;14.90;99.90
16273;DHT22;8244;50.044;9.006;2023-08-07T11:42:06;14.90;99.90
16273;DHT22;8244;50.044;9.006;2023-08-07T11:47:09;14.90;99.90
16273;DHT22;8244;50.044;9.006;2023-08-07T11:52:11;14.90;99.90
16273;DHT22;8244;50.044;9.006;2023-08-07T11:57:18;14.90;99.90
16273;DHT22;8244;50.044;9.006;2023-08-07T12:02:25;14.90;99.90
16273;DHT22;8244;50.044;9.006;2023-08-07T12:07:27;14.80;99.90
16273;DHT22;8244;50.044;9.006;2023-08-07T12:12:33;14.80;99.90
16273;DHT22;8244;50.044;9.006;2023-08-07T12:17:36;14.80;99.90
16273;DHT22;8244;50.044;9.006;2023-08-07T12:22:38;14.70;99.90
16273;DHT22;8244;50.044;9.006;2023-08-07T12:27:40;14.70;99.90
16273;DHT22;8244;50.044;9.006;2023-08-07T12:32:45;14.70;99.90
16273;DHT22;8244;50.044;9.006;2023-08-07T12:37:47;14.90;99.90
16273;DHT22;8244;50.044;9.006;2023-08-07T12:42:49;15.10;99.90
16273;DHT22;8244;50.044;9.006;2023-08-07T12:47:52;15.30;99.90
16273;DHT22;8244;50.044;9.006;2023-08-07T12:52:54;15.40;99.90
16273;DHT22;8244;50.044;9.006;2023-08-07T12:57:56;15.60;99.90
16273;DHT22;8244;50.044;9.006;2023-08-07T13:02:59;15.80;99.90
16273;DHT22;8244;50.044;9.006;2023-08-07T13:08:01;16.20;99.90
16273;DHT22;8244;50.044;9.006;2023-08-07T13:13:03;16.80;99.90
16273;DHT22;8244;50.044;9.006;2023-08-07T13:18:07;17.30;99.90
16273;DHT22;8244;50.044;9.006;2023-08-07T13:23:08;17.80;99.90
16273;DHT22;8244;50.044;9.006;2023-08-07T13:28:10;18.10;99.90
16273;DHT22;8244;50.044;9.006;2023-08-07T13:33:13;18.30;99.90
16273;DHT22;8244;50.044;9.006;2023-08-07T13:38:15;18.30;99.90
16273;DHT22;8244;50.044;9.006;2023-08-07T13:43:18;18.50;99.90
16273;DHT22;8244;50.044;9.006;2023-08-07T13:48:21;18.80;99.90
16273;DHT22;8244;50.044;9.006;2023-08-07T13:53:26;19.20;99.90
16273;DHT22;8244;50.044;9.006;2023-08-07T13:58:29;19.70;99.90
16273;DHT22;8244;50.044;9.006;2023-08-07T14:03:32;20.10;99.90
16273;DHT22;8244;50.044;9.006;2023-08-07T14:08:34;20.40;99.90
16273;DHT22;8244;50.044;9.006;2023-08-07T14:13:35;20.90;99.90
16273;DHT22;8244;50.044;9.006;2023-08-07T14:18:39;21.30;99.90
16273;DHT22;8244;50.044;9.006;2023-08-07T14:23:42;21.60;99.90
16273;DHT22;8244;50.044;9.006;2023-08-07T14:28:46;22.00;99.90
16273;DHT22;8244;50.044;9.006;2023-08-07T14:33:48;22.10;99.90
16273;DHT22;8244;50.044;9.006;2023-08-07T14:38:50;22.30;99.90
16273;DHT22;8244;50.044;9.006;2023-08-07T14:43:52;22.40;99.90
16273;DHT22;8244;50.044;9.006;2023-08-07T14:48:55;22.50;99.90
16273;DHT22;8244;50.044;9.006;2023-08-07T14:53:57;22.50;99.90
16273;DHT22;8244;50.044;9.006;2023-08-07T14:58:59;22.60;99.90
16273;DHT22;8244;50.044;9.006;2023-08-07T15:04:02;22.40;99.90
16273;DHT22;8244;50.044;9.006;2023-08-07T15:09:03;22.20;99.90
16273;DHT22;8244;50.044;9.006;2023-08-07T15:14:05;22.00;99.90
16273;DHT22;8244;50.044;9.006;2023-08-07T15:19:09;21.90;98.80
16273;DHT22;8244;50.044;9.006;2023-08-07T15:24:11;21.80;99.20
16273;DHT22;8244;50.044;9.006;2023-08-07T15:29:12;22.20;99.90
16273;DHT22;8244;50.044;9.006;2023-08-07T15:34:15;22.40;97.00
16273;DHT22;8244;50.044;9.006;2023-08-07T15:39:17;22.40;96.70
16273;DHT22;8244;50.044;9.006;2023-08-07T15:44:19;22.50;97.50
16273;DHT22;8244;50.044;9.006;2023-08-07T15:49:22;22.60;96.10
16273;DHT22;8244;50.044;9.006;2023-08-07T15:54:24;22.50;96.80
16273;DHT22;8244;50.044;9.006;2023-08-07T15:59:26;22.10;93.90
16273;DHT22;8244;50.044;9.006;2023-08-07T16:04:29;21.80;94.90
16273;DHT22;8244;50.044;9.006;2023-08-07T16:09:31;21.70;93.80
16273;DHT22;8244;50.044;9.006;2023-08-07T16:14:33;21.50;94.40
16273;DHT22;8244;50.044;9.006;2023-08-07T16:19:36;21.50;95.70
16273;DHT22;8244;50.044;9.006;2023-08-07T16:24:37;21.30;95.20
16273;DHT22;8244;50.044;9.006;2023-08-07T16:29:39;21.10;94.40
16273;DHT22;8244;50.044;9.006;2023-08-07T16:34:42;21.00;96.00
16273;DHT22;8244;50.044;9.006;2023-08-07T16:39:43;21.10;97.10
16273;DHT22;8244;50.044;9.006;2023-08-07T16:44:46;21.30;97.10
16273;DHT22;8244;50.044;9.006;2023-08-07T16:49:49;21.50;96.70
16273;DHT22;8244;50.044;9.006;2023-08-07T16:54:51;21.60;96.60
16273;DHT22;8244;50.044;9.006;2023-08-07T16:59:55;21.70;96.20
16273;DHT22;8244;50.044;9.006;2023-08-07T17:04:58;21.70;94.90
16273;DHT22;8244;50.044;9.006;2023-08-07T17:09:59;21.60;95.10
16273;DHT22;8244;50.044;9.006;2023-08-07T17:15:01;21.40;95.10
16273;DHT22;8244;50.044;9.006;2023-08-07T17:20:05;21.10;94.50
16273;DHT22;8244;50.044;9.006;2023-08-07T17:25:08;21.00;95.20
16273;DHT22;8244;50.044;9.006;2023-08-07T17:30:10;20.80;94.30
16273;DHT22;8244;50.044;9.006;2023-08-07T17:35:13;20.60;94.80
16273;DHT22;8244;50.044;9.006;2023-08-07T17:40:15;20.40;96.10
16273;DHT22;8244;50.044;9.006;2023-08-07T17:45:17;20.10;97.20
16273;DHT22;8244;50.044;9.006;2023-08-07T17:50:20;19.90;97.50
16273;DHT22;8244;50.044;9.006;2023-08-07T17:55:23;19.70;97.90
16273;DHT22;8244;50.044;9.006;2023-08-07T18:00:25;19.60;98.50
16273;DHT22;8244;50.044;9.006;2023-08-07T18:05:29;19.50;98.40
16273;DHT22;8244;50.044;9.006;2023-08-07T18:10:30;19.40;99.00
16273;DHT22;8244;50.044;9.006;2023-08-07T18:15:32;19.40;99.50
16273;DHT22;8244;50.044;9.006;2023-08-07T18:20:35;19.40;99.90
16273;DHT22;8244;50.044;9.006;2023-08-07T18:25:37;19.40;99.90
16273;DHT22;8244;50.044;9.006;2023-08-07T18:30:39;19.20;99.90
16273;DHT22;8244;50.044;9.006;2023-08-07T18:35:42;18.90;99.90
16273;DHT22;8244;50.044;9.006;2023-08-07T18:40:43;18.50;99.90
16273;DHT22;8244;50.044;9.006;2023-08-07T18:45:45;18.20;99.90
16273;DHT22;8244;50.044;9.006;2023-08-07T18:50:48;18.00;99.90
16273;DHT22;8244;50.044;9.006;2023-08-07T18:55:50;17.80;99.90
16273;DHT22;8244;50.044;9.006;2023-08-07T19:00:51;17.60;99.90
16273;DHT22;8244;50.044;9.006;2023-08-07T19:05:54;17.60;99.90
16273;DHT22;8244;50.044;9.006;2023-08-07T19:10:56;17.40;99.90
16273;DHT22;8244;50.044;9.006;2023-08-07T19:15:58;17.30;99.90
16273;DHT22;8244;50.044;9.006;2023-08-07T19:21:01;17.10;99.90
16273;DHT22;8244;50.044;9.006;2023-08-07T19:26:02;17.00;99.90
16273;DHT22;8244;50.044;9.006;2023-08-07T19:31:04;16.80;99.90
16273;DHT22;8244;50.044;9.006;2023-08-07T19:36:07;16.60;99.90
16273;DHT22;8244;50.044;9.006;2023-08-07T19:41:09;16.50;99.90
16273;DHT22;8244;50.044;9.006;2023-08-07T19:46:11;16.30;99.90
16273;DHT22;8244;50.044;9.006;2023-08-07T19:51:14;16.20;99.90
16273;DHT22;8244;50.044;9.006;2023-08-07T19:56:18;16.10;99.90
16273;DHT22;8244;50.044;9.006;2023-08-07T20:01:19;16.00;99.90
16273;DHT22;8244;50.044;9.006;2023-08-07T20:06:22;15.90;99.90
16273;DHT22;8244;50.044;9.006;2023-08-07T20:11:26;15.90;99.90
16273;DHT22;8244;50.044;9.006;2023-08-07T20:16:27;15.80;99.90
16273;DHT22;8244;50.044;9.006;2023-08-07T20:21:33;15.70;99.90
16273;DHT22;8244;50.044;9.006;2023-08-07T20:26:35;15.60;99.90
16273;DHT22;8244;50.044;9.006;2023-08-07T20:31:37;15.50;99.90
16273;DHT22;8244;50.044;9.006;2023-08-07T20:36:40;15.40;99.90
16273;DHT22;8244;50.044;9.006;2023-08-07T20:41:43;15.40;99.90
16273;DHT22;8244;50.044;9.006;2023-08-07T20:46:44;15.30;99.90
16273;DHT22;8244;50.044;9.006;2023-08-07T20:51:47;15.30;99.90
16273;DHT22;8244;50.044;9.006;2023-08-07T20:56:49;15.20;99.90
16273;DHT22;8244;50.044;9.006;2023-08-07T21:01:51;15.10;99.90
16273;DHT22;8244;50.044;9.006;2023-08-07T21:06:54;15.10;99.90
16273;DHT22;8244;50.044;9.006;2023-08-07T21:11:55;15.10;99.90
16273;DHT22;8244;50.044;9.006;2023-08-07T21:16:57;15.10;99.90
16273;DHT22;8244;50.044;9.006;2023-08-07T21:22:00;15.10;99.90
16273;DHT22;8244;50.044;9.006;2023-08-07T21:27:02;15.10;99.90
16273;DHT22;8244;50.044;9.006;2023-08-07T21:32:04;15.00;99.90
16273;DHT22;8244;50.044;9.006;2023-08-07T21:37:08;15.00;99.90
16273;DHT22;8244;50.044;9.006;2023-08-07T21:42:10;15.00;99.90
16273;DHT22;8244;50.044;9.006;2023-08-07T21:47:11;15.00;99.90
16273;DHT22;8244;50.044;9.006;2023-08-07T21:52:14;15.00;99.90
16273;DHT22;8244;50.044;9.006;2023-08-07T21:57:17;15.00;99.90
16273;DHT22;8244;50.044;9.006;2023-08-07T22:02:18;14.90;99.90
16273;DHT22;8244;50.044;9.006;2023-08-07T22:07:23;14.80;99.90
16273;DHT22;8244;50.044;9.006;2023-08-07T22:12:24;14.70;99.90
16273;DHT22;8244;50.044;9.006;2023-08-07T22:17:26;14.60;99.90
16273;DHT22;8244;50.044;9.006;2023-08-07T22:22:29;14.50;99.90
16273;DHT22;8244;50.044;9.006;2023-08-07T22:27:31;14.40;99.90
16273;DHT22;8244;50.044;9.006;2023-08-07T22:32:32;14.30;99.90
16273;DHT22;8244;50.044;9.006;2023-08-07T22:37:35;14.30;99.90
16273;DHT22;8244;50.044;9.006;2023-08-07T22:42:37;14.30;99.90
16273;DHT22;8244;50.044;9.006;2023-08-07T22:47:39;14.30;99.90
16273;DHT22;8244;50.044;9.006;2023-08-07T22:52:42;14.30;99.90
16273;DHT22;8244;50.044;9.006;2023-08-07T22:57:43;14.20;99.90
16273;DHT22;8244;50.044;9.006;2023-08-07T23:02:45;14.20;99.90
16273;DHT22;8244;50.044;9.006;2023-08-07T23:07:48;14.20;99.90
16273;DHT22;8244;50.044;9.006;2023-08-07T23:12:50;14.10;99.90
16273;DHT22;8244;50.044;9.006;2023-08-07T23:17:52;14.10;99.90
16273;DHT22;8244;50.044;9.006;2023-08-07T23:22:55;14.10;99.90
16273;DHT22;8244;50.044;9.006;2023-08-07T23:27:57;14.00;99.90
16273;DHT22;8244;50.044;9.006;2023-08-07T23:32:59;13.90;99.90
16273;DHT22;8244;50.044;9.006;2023-08-07T23:38:03;13.90;99.90
16273;DHT22;8244;50.044;9.006;2023-08-07T23:43:05;13.80;99.90
16273;DHT22;8244;50.044;9.006;2023-08-07T23:48:06;13.70;99.90
16273;DHT22;8244;50.044;9.006;2023-08-07T23:53:10;13.70;99.90
16273;DHT22;8244;50.044;9.006;2023-08-07T23:58:11;13.60;99.90
